sensor_id;sensor_type;location;lat;lon;timestamp;pressure;altitude;pressure_sealevel;temperature;humidity
70133;BME280;57495;49.922;7.966;2023-05-21T00:01:12;99758.53;;;16.19;89.99
70133;BME280;57495;49.922;7.966;2023-05-21T00:03:15;99762.34;;;16.10;90.16
70133;BME280;57495;49.922;7.966;2023-05-21T00:05:17;99751.03;;;16.14;89.80
70133;BME280;57495;49.922;7.966;2023-05-21T00:07:20;99758.81;;;16.09;90.50
70133;BME280;57495;49.922;7.966;2023-05-21T00:09:23;99758.34;;;16.06;90.44
70133;BME280;57495;49.922;7.966;2023-05-21T00:11:25;99758.94;;;16.16;90.07
70133;BME280;57495;49.922;7.966;2023-05-21T00:13:26;99760.75;;;16.00;90.60
70133;BME280;57495;49.922;7.966;2023-05-21T00:15:28;99753.25;;;16.11;89.96
70133;BME280;57495;49.922;7.966;2023-05-21T00:17:29;99752.97;;;16.06;90.65
70133;BME280;57495;49.922;7.966;2023-05-21T00:19:31;99747.56;;;16.06;90.66
70133;BME280;57495;49.922;7.966;2023-05-21T00:21:33;99744.22;;;16.03;90.23
70133;BME280;57495;49.922;7.966;2023-05-21T00:23:35;99743.47;;;16.10;90.27
70133;BME280;57495;49.922;7.966;2023-05-21T00:25:38;99744.78;;;16.14;90.06
70133;BME280;57495;49.922;7.966;2023-05-21T00:27:39;99739.38;;;16.14;90.28
70133;BME280;57495;49.922;7.966;2023-05-21T00:29:41;99741.81;;;16.09;90.26
70133;BME280;57495;49.922;7.966;2023-05-21T00:31:43;99733.44;;;16.03;90.60
70133;BME280;57495;49.922;7.966;2023-05-21T00:33:44;99729.50;;;16.06;90.43
70133;BME280;57495;49.922;7.966;2023-05-21T00:35:46;99728.38;;;15.85;91.83
70133;BME280;57495;49.922;7.966;2023-05-21T00:37:47;99727.75;;;15.83;92.26
70133;BME280;57495;49.922;7.966;2023-05-21T00:39:49;99731.66;;;15.96;91.56
70133;BME280;57495;49.922;7.966;2023-05-21T00:41:52;99724.31;;;16.04;90.67
70133;BME280;57495;49.922;7.966;2023-05-21T00:43:56;99727.38;;;16.01;91.01
70133;BME280;57495;49.922;7.966;2023-05-21T00:45:59;99727.56;;;15.85;91.68
70133;BME280;57495;49.922;7.966;2023-05-21T00:48:01;99723.75;;;15.79;92.45
70133;BME280;57495;49.922;7.966;2023-05-21T00:50:04;99717.78;;;15.84;92.19
70133;BME280;57495;49.922;7.966;2023-05-21T00:52:06;99714.81;;;15.79;92.41
70133;BME280;57495;49.922;7.966;2023-05-21T00:54:08;99716.31;;;15.81;91.94
70133;BME280;57495;49.922;7.966;2023-05-21T00:56:10;99716.22;;;15.90;91.59
70133;BME280;57495;49.922;7.966;2023-05-21T00:58:13;99711.28;;;15.78;92.49
70133;BME280;57495;49.922;7.966;2023-05-21T01:00:17;99712.84;;;15.88;91.92
70133;BME280;57495;49.922;7.966;2023-05-21T01:02:19;99702.34;;;15.78;92.81
70133;BME280;57495;49.922;7.966;2023-05-21T01:04:23;99709.03;;;15.82;92.30
70133;BME280;57495;49.922;7.966;2023-05-21T01:06:24;99710.03;;;15.66;93.19
70133;BME280;57495;49.922;7.966;2023-05-21T01:08:29;99710.13;;;15.73;93.05
70133;BME280;57495;49.922;7.966;2023-05-21T01:10:31;99705.59;;;15.73;92.71
70133;BME280;57495;49.922;7.966;2023-05-21T01:12:33;99703.56;;;15.52;93.96
70133;BME280;57495;49.922;7.966;2023-05-21T01:14:37;99702.81;;;15.43;95.04
70133;BME280;57495;49.922;7.966;2023-05-21T01:16:43;99698.19;;;15.52;94.22
70133;BME280;57495;49.922;7.966;2023-05-21T01:18:47;99690.31;;;15.65;93.39
70133;BME280;57495;49.922;7.966;2023-05-21T01:20:49;99691.81;;;15.68;93.24
70133;BME280;57495;49.922;7.966;2023-05-21T01:22:53;99694.97;;;15.57;94.14
70133;BME280;57495;49.922;7.966;2023-05-21T01:24:55;99688.94;;;15.70;93.68
70133;BME280;57495;49.922;7.966;2023-05-21T01:26:57;99691.03;;;15.82;92.45
70133;BME280;57495;49.922;7.966;2023-05-21T01:28:59;99692.88;;;15.82;92.54
70133;BME280;57495;49.922;7.966;2023-05-21T01:31:17;99697.91;;;15.85;92.09
70133;BME280;57495;49.922;7.966;2023-05-21T01:33:24;99695.38;;;15.83;91.92
70133;BME280;57495;49.922;7.966;2023-05-21T01:35:31;99690.50;;;15.64;92.94
70133;BME280;57495;49.922;7.966;2023-05-21T01:37:35;99691.34;;;15.64;93.26
70133;BME280;57495;49.922;7.966;2023-05-21T01:39:43;99689.00;;;15.61;93.74
70133;BME280;57495;49.922;7.966;2023-05-21T01:41:48;99693.84;;;15.66;93.17
70133;BME280;57495;49.922;7.966;2023-05-21T01:43:55;99691.81;;;15.68;93.23
70133;BME280;57495;49.922;7.966;2023-05-21T01:45:57;99688.56;;;15.73;92.91
70133;BME280;57495;49.922;7.966;2023-05-21T01:47:59;99693.00;;;15.65;93.60
70133;BME280;57495;49.922;7.966;2023-05-21T01:50:05;99684.91;;;15.65;93.69
70133;BME280;57495;49.922;7.966;2023-05-21T01:52:07;99684.69;;;15.75;92.88
70133;BME280;57495;49.922;7.966;2023-05-21T01:54:08;99684.19;;;15.72;93.12
70133;BME280;57495;49.922;7.966;2023-05-21T01:56:11;99682.22;;;15.65;93.68
70133;BME280;57495;49.922;7.966;2023-05-21T01:58:15;99683.53;;;15.70;93.05
70133;BME280;57495;49.922;7.966;2023-05-21T02:00:17;99678.31;;;15.53;93.98
70133;BME280;57495;49.922;7.966;2023-05-21T02:02:18;99680.63;;;15.71;93.08
70133;BME280;57495;49.922;7.966;2023-05-21T02:04:20;99678.81;;;15.72;92.82
70133;BME280;57495;49.922;7.966;2023-05-21T02:06:21;99670.53;;;15.58;93.60
70133;BME280;57495;49.922;7.966;2023-05-21T02:08:23;99669.19;;;15.54;94.09
70133;BME280;57495;49.922;7.966;2023-05-21T02:10:24;99667.88;;;15.50;94.36
70133;BME280;57495;49.922;7.966;2023-05-21T02:12:27;99671.69;;;15.41;95.21
70133;BME280;57495;49.922;7.966;2023-05-21T02:14:28;99668.84;;;15.57;94.15
70133;BME280;57495;49.922;7.966;2023-05-21T02:16:32;99670.13;;;15.61;93.55
70133;BME280;57495;49.922;7.966;2023-05-21T02:18:34;99668.84;;;15.57;93.71
70133;BME280;57495;49.922;7.966;2023-05-21T02:20:35;99671.44;;;15.65;93.35
70133;BME280;57495;49.922;7.966;2023-05-21T02:22:37;99671.88;;;15.54;94.46
70133;BME280;57495;49.922;7.966;2023-05-21T02:24:45;99663.09;;;15.60;94.00
70133;BME280;57495;49.922;7.966;2023-05-21T02:26:46;99666.13;;;15.57;93.80
70133;BME280;57495;49.922;7.966;2023-05-21T02:28:50;99665.13;;;15.58;93.75
70133;BME280;57495;49.922;7.966;2023-05-21T02:30:53;99673.47;;;15.63;93.56
70133;BME280;57495;49.922;7.966;2023-05-21T02:32:54;99664.91;;;15.60;93.88
70133;BME280;57495;49.922;7.966;2023-05-21T02:34:58;99663.72;;;15.62;93.53
70133;BME280;57495;49.922;7.966;2023-05-21T02:36:59;99657.31;;;15.63;93.55
70133;BME280;57495;49.922;7.966;2023-05-21T02:39:01;99653.97;;;15.61;93.54
70133;BME280;57495;49.922;7.966;2023-05-21T02:41:03;99662.16;;;15.53;93.98
70133;BME280;57495;49.922;7.966;2023-05-21T02:43:04;99666.22;;;15.49;94.80
70133;BME280;57495;49.922;7.966;2023-05-21T02:45:09;99664.19;;;15.51;94.44
70133;BME280;57495;49.922;7.966;2023-05-21T02:47:11;99665.50;;;15.55;94.34
70133;BME280;57495;49.922;7.966;2023-05-21T02:49:24;99665.38;;;15.49;94.46
70133;BME280;57495;49.922;7.966;2023-05-21T02:51:26;99660.84;;;15.49;94.43
70133;BME280;57495;49.922;7.966;2023-05-21T02:53:27;99658.31;;;15.33;95.56
70133;BME280;57495;49.922;7.966;2023-05-21T02:55:28;99653.34;;;15.21;96.25
70133;BME280;57495;49.922;7.966;2023-05-21T02:57:30;99657.06;;;15.20;96.75
70133;BME280;57495;49.922;7.966;2023-05-21T02:59:31;99657.78;;;15.14;96.78
70133;BME280;57495;49.922;7.966;2023-05-21T03:01:34;99654.16;;;15.07;97.72
70133;BME280;57495;49.922;7.966;2023-05-21T03:03:41;99653.22;;;15.15;97.21
70133;BME280;57495;49.922;7.966;2023-05-21T03:05:43;99655.81;;;15.08;97.81
70133;BME280;57495;49.922;7.966;2023-05-21T03:07:45;99657.59;;;15.16;97.24
70133;BME280;57495;49.922;7.966;2023-05-21T03:09:46;99651.06;;;15.10;97.51
70133;BME280;57495;49.922;7.966;2023-05-21T03:11:48;99658.97;;;15.12;97.36
70133;BME280;57495;49.922;7.966;2023-05-21T03:13:49;99664.66;;;15.17;96.80
70133;BME280;57495;49.922;7.966;2023-05-21T03:15:51;99654.44;;;15.12;97.30
70133;BME280;57495;49.922;7.966;2023-05-21T03:17:56;99652.75;;;15.11;97.17
70133;BME280;57495;49.922;7.966;2023-05-21T03:19:58;99658.88;;;15.05;98.09
70133;BME280;57495;49.922;7.966;2023-05-21T03:21:59;99653.34;;;15.21;96.77
70133;BME280;57495;49.922;7.966;2023-05-21T03:24:01;99652.50;;;15.21;96.79
70133;BME280;57495;49.922;7.966;2023-05-21T03:26:03;99655.78;;;15.31;95.97
70133;BME280;57495;49.922;7.966;2023-05-21T03:28:04;99647.97;;;15.21;96.72
70133;BME280;57495;49.922;7.966;2023-05-21T03:30:07;99652.41;;;15.14;97.10
70133;BME280;57495;49.922;7.966;2023-05-21T03:32:09;99653.16;;;15.23;96.83
70133;BME280;57495;49.922;7.966;2023-05-21T03:34:12;99654.00;;;15.23;96.67
70133;BME280;57495;49.922;7.966;2023-05-21T03:36:13;99654.06;;;15.15;97.01
70133;BME280;57495;49.922;7.966;2023-05-21T03:38:15;99655.75;;;15.16;96.93
70133;BME280;57495;49.922;7.966;2023-05-21T03:40:16;99649.28;;;15.25;96.32
70133;BME280;57495;49.922;7.966;2023-05-21T03:42:18;99647.38;;;15.11;97.42
70133;BME280;57495;49.922;7.966;2023-05-21T03:44:19;99652.16;;;15.01;98.09
70133;BME280;57495;49.922;7.966;2023-05-21T03:46:21;99650.16;;;15.03;97.93
70133;BME280;57495;49.922;7.966;2023-05-21T03:48:22;99649.41;;;15.09;97.28
70133;BME280;57495;49.922;7.966;2023-05-21T03:50:25;99641.97;;;15.11;97.61
70133;BME280;57495;49.922;7.966;2023-05-21T03:52:26;99645.59;;;15.03;97.91
70133;BME280;57495;49.922;7.966;2023-05-21T03:54:28;99641.75;;;14.98;98.60
70133;BME280;57495;49.922;7.966;2023-05-21T03:56:29;99645.59;;;15.03;98.17
70133;BME280;57495;49.922;7.966;2023-05-21T03:58:41;99638.41;;;14.96;98.81
70133;BME280;57495;49.922;7.966;2023-05-21T04:00:43;99643.91;;;15.02;98.25
70133;BME280;57495;49.922;7.966;2023-05-21T04:02:44;99647.09;;;14.83;99.86
70133;BME280;57495;49.922;7.966;2023-05-21T04:04:46;99646.03;;;14.92;99.43
70133;BME280;57495;49.922;7.966;2023-05-21T04:06:49;99648.22;;;14.88;99.21
70133;BME280;57495;49.922;7.966;2023-05-21T04:08:53;99648.81;;;14.99;98.76
70133;BME280;57495;49.922;7.966;2023-05-21T04:11:00;99654.16;;;15.07;98.31
70133;BME280;57495;49.922;7.966;2023-05-21T04:13:02;99652.88;;;14.95;99.11
70133;BME280;57495;49.922;7.966;2023-05-21T04:15:04;99656.00;;;15.06;98.30
70133;BME280;57495;49.922;7.966;2023-05-21T04:17:06;99660.84;;;15.11;98.02
70133;BME280;57495;49.922;7.966;2023-05-21T04:19:08;99654.88;;;15.16;97.71
70133;BME280;57495;49.922;7.966;2023-05-21T04:21:10;99661.13;;;15.16;97.87
70133;BME280;57495;49.922;7.966;2023-05-21T04:23:12;99659.16;;;15.10;97.89
70133;BME280;57495;49.922;7.966;2023-05-21T04:25:14;99659.97;;;14.96;99.16
70133;BME280;57495;49.922;7.966;2023-05-21T04:27:23;99656.84;;;15.07;98.67
70133;BME280;57495;49.922;7.966;2023-05-21T04:29:25;99661.41;;;15.06;98.52
70133;BME280;57495;49.922;7.966;2023-05-21T04:31:26;99662.56;;;15.04;98.45
70133;BME280;57495;49.922;7.966;2023-05-21T04:33:27;99668.91;;;15.11;98.08
70133;BME280;57495;49.922;7.966;2023-05-21T04:35:29;99669.88;;;15.18;97.88
70133;BME280;57495;49.922;7.966;2023-05-21T04:37:31;99668.91;;;15.11;99.18
70133;BME280;57495;49.922;7.966;2023-05-21T04:39:35;99664.47;;;15.18;98.44
70133;BME280;57495;49.922;7.966;2023-05-21T04:41:36;99662.78;;;15.17;98.43
70133;BME280;57495;49.922;7.966;2023-05-21T04:43:38;99667.84;;;15.20;98.33
70133;BME280;57495;49.922;7.966;2023-05-21T04:45:43;99669.53;;;15.21;98.54
70133;BME280;57495;49.922;7.966;2023-05-21T04:47:44;99668.78;;;15.27;98.12
70133;BME280;57495;49.922;7.966;2023-05-21T04:49:47;99671.91;;;15.16;98.81
70133;BME280;57495;49.922;7.966;2023-05-21T04:51:49;99667.75;;;15.28;98.27
70133;BME280;57495;49.922;7.966;2023-05-21T04:53:51;99668.44;;;15.31;97.90
70133;BME280;57495;49.922;7.966;2023-05-21T04:55:54;99669.53;;;15.21;98.80
70133;BME280;57495;49.922;7.966;2023-05-21T04:57:58;99669.59;;;15.28;98.36
70133;BME280;57495;49.922;7.966;2023-05-21T05:00:00;99671.19;;;15.22;98.48
70133;BME280;57495;49.922;7.966;2023-05-21T05:02:01;99673.88;;;15.22;98.73
70133;BME280;57495;49.922;7.966;2023-05-21T05:04:03;99667.38;;;15.32;98.06
70133;BME280;57495;49.922;7.966;2023-05-21T05:06:05;99663.75;;;15.24;98.77
70133;BME280;57495;49.922;7.966;2023-05-21T05:08:07;99668.97;;;15.26;98.77
70133;BME280;57495;49.922;7.966;2023-05-21T05:10:09;99663.03;;;15.31;98.30
70133;BME280;57495;49.922;7.966;2023-05-21T05:12:11;99659.56;;;15.22;98.76
70133;BME280;57495;49.922;7.966;2023-05-21T05:14:13;99661.88;;;15.25;98.66
70133;BME280;57495;49.922;7.966;2023-05-21T05:16:14;99663.03;;;15.31;98.62
70133;BME280;57495;49.922;7.966;2023-05-21T05:18:23;99661.66;;;15.35;98.52
70133;BME280;57495;49.922;7.966;2023-05-21T05:20:25;99668.63;;;15.44;98.08
70133;BME280;57495;49.922;7.966;2023-05-21T05:22:26;99661.56;;;15.43;98.78
70133;BME280;57495;49.922;7.966;2023-05-21T05:24:27;99662.44;;;15.58;97.74
70133;BME280;57495;49.922;7.966;2023-05-21T05:26:29;99662.34;;;15.66;97.06
70133;BME280;57495;49.922;7.966;2023-05-21T05:28:32;99665.03;;;15.66;96.78
70133;BME280;57495;49.922;7.966;2023-05-21T05:30:33;99661.13;;;15.69;97.33
70133;BME280;57495;49.922;7.966;2023-05-21T05:32:35;99660.25;;;15.77;97.44
70133;BME280;57495;49.922;7.966;2023-05-21T05:34:36;99661.25;;;15.76;97.33
70133;BME280;57495;49.922;7.966;2023-05-21T05:36:38;99664.13;;;15.74;96.68
70133;BME280;57495;49.922;7.966;2023-05-21T05:38:39;99664.59;;;15.78;96.88
70133;BME280;57495;49.922;7.966;2023-05-21T05:40:40;99663.78;;;15.77;97.32
70133;BME280;57495;49.922;7.966;2023-05-21T05:42:42;99667.19;;;15.86;96.59
70133;BME280;57495;49.922;7.966;2023-05-21T05:44:45;99664.13;;;15.89;96.62
70133;BME280;57495;49.922;7.966;2023-05-21T05:46:46;99673.44;;;16.01;96.24
70133;BME280;57495;49.922;7.966;2023-05-21T05:48:47;99672.97;;;16.13;95.72
70133;BME280;57495;49.922;7.966;2023-05-21T05:50:49;99671.69;;;16.09;96.03
70133;BME280;57495;49.922;7.966;2023-05-21T05:52:53;99675.00;;;16.26;95.78
70133;BME280;57495;49.922;7.966;2023-05-21T05:54:55;99670.34;;;16.34;94.75
70133;BME280;57495;49.922;7.966;2023-05-21T05:56:56;99665.97;;;16.33;95.00
70133;BME280;57495;49.922;7.966;2023-05-21T05:58:57;99675.25;;;16.46;94.98
70133;BME280;57495;49.922;7.966;2023-05-21T06:01:00;99673.00;;;16.49;93.37
70133;BME280;57495;49.922;7.966;2023-05-21T06:03:36;99665.56;;;16.51;93.63
70133;BME280;57495;49.922;7.966;2023-05-21T06:05:37;99670.19;;;16.57;93.74
70133;BME280;57495;49.922;7.966;2023-05-21T06:07:39;99666.25;;;16.60;93.32
70133;BME280;57495;49.922;7.966;2023-05-21T06:09:41;99670.81;;;16.59;92.81
70133;BME280;57495;49.922;7.966;2023-05-21T06:11:42;99671.19;;;16.71;92.56
70133;BME280;57495;49.922;7.966;2023-05-21T06:13:44;99671.91;;;16.65;92.45
70133;BME280;57495;49.922;7.966;2023-05-21T06:15:45;99668.66;;;16.70;92.18
70133;BME280;57495;49.922;7.966;2023-05-21T06:17:48;99676.19;;;16.74;91.85
70133;BME280;57495;49.922;7.966;2023-05-21T06:19:49;99672.06;;;16.78;92.82
70133;BME280;57495;49.922;7.966;2023-05-21T06:21:50;99676.75;;;16.85;90.80
70133;BME280;57495;49.922;7.966;2023-05-21T06:23:52;99671.78;;;16.88;92.17
70133;BME280;57495;49.922;7.966;2023-05-21T06:25:53;99677.56;;;16.85;92.74
70133;BME280;57495;49.922;7.966;2023-05-21T06:27:55;99676.09;;;17.04;91.81
70133;BME280;57495;49.922;7.966;2023-05-21T06:29:56;99677.13;;;17.03;91.61
70133;BME280;57495;49.922;7.966;2023-05-21T06:31:58;99671.66;;;17.18;92.85
70133;BME280;57495;49.922;7.966;2023-05-21T06:34:02;99665.91;;;17.28;90.40
70133;BME280;57495;49.922;7.966;2023-05-21T06:36:03;99666.34;;;17.31;89.67
70133;BME280;57495;49.922;7.966;2023-05-21T06:38:05;99669.63;;;17.27;90.32
70133;BME280;57495;49.922;7.966;2023-05-21T06:40:07;99662.03;;;17.37;89.53
70133;BME280;57495;49.922;7.966;2023-05-21T06:42:09;99676.53;;;17.57;88.94
70133;BME280;57495;49.922;7.966;2023-05-21T06:44:10;99671.91;;;17.51;88.25
70133;BME280;57495;49.922;7.966;2023-05-21T06:46:12;99667.59;;;17.85;87.67
70133;BME280;57495;49.922;7.966;2023-05-21T06:48:13;99672.00;;;17.93;88.18
70133;BME280;57495;49.922;7.966;2023-05-21T06:50:17;99672.31;;;18.11;85.66
70133;BME280;57495;49.922;7.966;2023-05-21T06:52:19;99671.00;;;18.01;86.48
70133;BME280;57495;49.922;7.966;2023-05-21T06:54:20;99664.91;;;18.33;85.87
70133;BME280;57495;49.922;7.966;2023-05-21T06:56:22;99669.94;;;18.37;84.47
70133;BME280;57495;49.922;7.966;2023-05-21T06:58:23;99670.31;;;18.33;85.34
70133;BME280;57495;49.922;7.966;2023-05-21T07:00:30;99681.94;;;18.21;84.58
70133;BME280;57495;49.922;7.966;2023-05-21T07:02:31;99674.34;;;18.44;84.59
70133;BME280;57495;49.922;7.966;2023-05-21T07:04:32;99677.44;;;18.41;84.79
70133;BME280;57495;49.922;7.966;2023-05-21T07:06:36;99681.63;;;18.44;83.87
70133;BME280;57495;49.922;7.966;2023-05-21T07:08:37;99680.81;;;18.50;84.79
70133;BME280;57495;49.922;7.966;2023-05-21T07:10:39;99685.44;;;18.63;83.98
70133;BME280;57495;49.922;7.966;2023-05-21T07:12:41;99677.97;;;18.71;83.50
70133;BME280;57495;49.922;7.966;2023-05-21T07:14:42;99676.56;;;18.82;82.63
70133;BME280;57495;49.922;7.966;2023-05-21T07:16:44;99682.28;;;18.59;84.02
70133;BME280;57495;49.922;7.966;2023-05-21T07:18:45;99676.34;;;18.84;82.48
70133;BME280;57495;49.922;7.966;2023-05-21T07:20:47;99676.41;;;19.10;81.23
70133;BME280;57495;49.922;7.966;2023-05-21T07:22:49;99673.88;;;18.96;81.25
70133;BME280;57495;49.922;7.966;2023-05-21T07:24:51;99671.81;;;19.11;81.37
70133;BME280;57495;49.922;7.966;2023-05-21T07:26:52;99672.44;;;19.20;81.97
70133;BME280;57495;49.922;7.966;2023-05-21T07:28:53;99678.66;;;19.00;81.50
70133;BME280;57495;49.922;7.966;2023-05-21T07:30:55;99677.22;;;18.98;82.04
70133;BME280;57495;49.922;7.966;2023-05-21T07:32:56;99674.72;;;19.03;81.07
70133;BME280;57495;49.922;7.966;2023-05-21T07:34:59;99676.63;;;19.16;81.46
70133;BME280;57495;49.922;7.966;2023-05-21T07:37:02;99667.66;;;19.08;80.98
70133;BME280;57495;49.922;7.966;2023-05-21T07:39:04;99669.91;;;19.11;81.46
70133;BME280;57495;49.922;7.966;2023-05-21T07:41:06;99670.97;;;19.10;82.18
70133;BME280;57495;49.922;7.966;2023-05-21T07:43:07;99672.22;;;19.01;81.31
70133;BME280;57495;49.922;7.966;2023-05-21T07:45:09;99670.53;;;19.00;80.77
70133;BME280;57495;49.922;7.966;2023-05-21T07:47:10;99668.88;;;18.99;81.80
70133;BME280;57495;49.922;7.966;2023-05-21T07:49:12;99662.59;;;18.99;82.20
70133;BME280;57495;49.922;7.966;2023-05-21T07:51:16;99661.59;;;19.20;82.24
70133;BME280;57495;49.922;7.966;2023-05-21T07:53:17;99664.72;;;19.57;80.97
70133;BME280;57495;49.922;7.966;2023-05-21T07:55:20;99666.16;;;19.66;82.10
70133;BME280;57495;49.922;7.966;2023-05-21T07:57:22;99658.38;;;20.03;79.54
70133;BME280;57495;49.922;7.966;2023-05-21T07:59:23;99660.19;;;20.22;79.71
70133;BME280;57495;49.922;7.966;2023-05-21T08:01:26;99663.09;;;20.73;77.49
70133;BME280;57495;49.922;7.966;2023-05-21T08:03:28;99653.09;;;20.98;75.60
70133;BME280;57495;49.922;7.966;2023-05-21T08:05:31;99646.09;;;21.16;74.67
70133;BME280;57495;49.922;7.966;2023-05-21T08:07:32;99656.34;;;21.46;74.41
70133;BME280;57495;49.922;7.966;2023-05-21T08:09:34;99648.34;;;21.51;73.45
70133;BME280;57495;49.922;7.966;2023-05-21T08:11:37;99644.97;;;21.49;72.17
70133;BME280;57495;49.922;7.966;2023-05-21T08:13:39;99644.91;;;21.80;74.14
70133;BME280;57495;49.922;7.966;2023-05-21T08:15:40;99646.75;;;21.80;73.36
70133;BME280;57495;49.922;7.966;2023-05-21T08:17:41;99654.28;;;21.85;72.31
70133;BME280;57495;49.922;7.966;2023-05-21T08:19:43;99650.47;;;21.86;72.42
70133;BME280;57495;49.922;7.966;2023-05-21T08:21:44;99649.34;;;21.75;71.11
70133;BME280;57495;49.922;7.966;2023-05-21T08:23:46;99649.03;;;21.83;71.27
70133;BME280;57495;49.922;7.966;2023-05-21T08:25:49;99642.19;;;21.80;71.30
70133;BME280;57495;49.922;7.966;2023-05-21T08:27:54;99644.31;;;21.97;71.00
70133;BME280;57495;49.922;7.966;2023-05-21T08:29:55;99642.84;;;22.13;68.47
70133;BME280;57495;49.922;7.966;2023-05-21T08:31:56;99642.41;;;22.34;69.29
70133;BME280;57495;49.922;7.966;2023-05-21T08:33:58;99636.25;;;22.39;70.12
70133;BME280;57495;49.922;7.966;2023-05-21T08:35:59;99640.81;;;22.45;70.41
70133;BME280;57495;49.922;7.966;2023-05-21T08:38:01;99638.53;;;22.42;69.42
70133;BME280;57495;49.922;7.966;2023-05-21T08:40:03;99641.41;;;22.47;67.99
70133;BME280;57495;49.922;7.966;2023-05-21T08:42:10;99633.78;;;22.68;70.26
70133;BME280;57495;49.922;7.966;2023-05-21T08:44:19;99637.31;;;22.68;67.99
70133;BME280;57495;49.922;7.966;2023-05-21T08:46:22;99636.44;;;22.56;68.55
70133;BME280;57495;49.922;7.966;2023-05-21T08:48:23;99633.91;;;22.73;69.06
70133;BME280;57495;49.922;7.966;2023-05-21T08:50:39;99631.59;;;22.88;68.72
70133;BME280;57495;49.922;7.966;2023-05-21T08:52:41;99627.06;;;22.82;67.28
70133;BME280;57495;49.922;7.966;2023-05-21T08:54:43;99623.94;;;23.09;68.88
70133;BME280;57495;49.922;7.966;2023-05-21T08:56:45;99629.31;;;23.27;68.05
70133;BME280;57495;49.922;7.966;2023-05-21T08:58:48;99631.91;;;23.22;65.17
70133;BME280;57495;49.922;7.966;2023-05-21T09:00:53;99633.94;;;23.50;65.78
70133;BME280;57495;49.922;7.966;2023-05-21T09:02:55;99629.56;;;23.49;67.59
70133;BME280;57495;49.922;7.966;2023-05-21T09:05:00;99628.81;;;23.54;64.67
70133;BME280;57495;49.922;7.966;2023-05-21T09:07:03;99631.56;;;23.78;62.88
70133;BME280;57495;49.922;7.966;2023-05-21T09:09:12;99621.72;;;23.77;62.56
70133;BME280;57495;49.922;7.966;2023-05-21T09:11:15;99621.47;;;23.90;62.99
70133;BME280;57495;49.922;7.966;2023-05-21T09:13:17;99624.78;;;23.92;62.05
70133;BME280;57495;49.922;7.966;2023-05-21T09:15:19;99628.38;;;23.81;61.41
70133;BME280;57495;49.922;7.966;2023-05-21T09:17:21;99622.66;;;23.70;62.27
70133;BME280;57495;49.922;7.966;2023-05-21T09:19:23;99628.38;;;23.57;63.77
70133;BME280;57495;49.922;7.966;2023-05-21T09:21:26;99623.88;;;23.51;62.10
70133;BME280;57495;49.922;7.966;2023-05-21T09:23:28;99627.28;;;23.23;62.31
70133;BME280;57495;49.922;7.966;2023-05-21T09:25:29;99621.94;;;23.16;62.44
70133;BME280;57495;49.922;7.966;2023-05-21T09:27:31;99617.31;;;23.16;64.66
70133;BME280;57495;49.922;7.966;2023-05-21T09:29:32;99620.75;;;23.35;66.30
70133;BME280;57495;49.922;7.966;2023-05-21T09:31:34;99619.81;;;23.53;66.51
70133;BME280;57495;49.922;7.966;2023-05-21T09:33:44;99625.03;;;23.55;62.42
70133;BME280;57495;49.922;7.966;2023-05-21T09:35:46;99619.69;;;23.37;63.05
70133;BME280;57495;49.922;7.966;2023-05-21T09:37:48;99631.22;;;23.39;63.43
70133;BME280;57495;49.922;7.966;2023-05-21T09:39:51;99628.00;;;23.30;63.69
70133;BME280;57495;49.922;7.966;2023-05-21T09:41:55;99619.69;;;23.37;62.85
70133;BME280;57495;49.922;7.966;2023-05-21T09:43:58;99626.09;;;23.42;62.20
70133;BME280;57495;49.922;7.966;2023-05-21T09:45:59;99628.47;;;23.39;62.76
70133;BME280;57495;49.922;7.966;2023-05-21T09:48:01;99622.19;;;23.26;62.72
70133;BME280;57495;49.922;7.966;2023-05-21T09:50:05;99628.34;;;23.10;62.58
70133;BME280;57495;49.922;7.966;2023-05-21T09:52:07;99628.44;;;23.15;64.02
70133;BME280;57495;49.922;7.966;2023-05-21T09:54:09;99619.09;;;23.11;62.77
70133;BME280;57495;49.922;7.966;2023-05-21T09:56:12;99625.16;;;23.25;63.14
70133;BME280;57495;49.922;7.966;2023-05-21T09:58:13;99631.94;;;23.46;63.85
70133;BME280;57495;49.922;7.966;2023-05-21T10:00:19;99622.44;;;23.60;61.91
70133;BME280;57495;49.922;7.966;2023-05-21T10:02:22;99628.13;;;23.94;60.28
70133;BME280;57495;49.922;7.966;2023-05-21T10:04:25;99624.16;;;24.42;58.74
70133;BME280;57495;49.922;7.966;2023-05-21T10:06:31;99624.94;;;24.83;58.34
70133;BME280;57495;49.922;7.966;2023-05-21T10:08:35;99631.63;;;24.59;59.32
70133;BME280;57495;49.922;7.966;2023-05-21T10:10:42;99626.28;;;24.81;61.89
70133;BME280;57495;49.922;7.966;2023-05-21T10:12:46;99627.09;;;24.64;59.06
70133;BME280;57495;49.922;7.966;2023-05-21T10:14:50;99622.31;;;24.88;61.92
70133;BME280;57495;49.922;7.966;2023-05-21T10:16:54;99621.50;;;25.05;59.79
70133;BME280;57495;49.922;7.966;2023-05-21T10:18:56;99621.38;;;25.29;59.42
70133;BME280;57495;49.922;7.966;2023-05-21T10:20:59;99610.28;;;25.96;59.20
70133;BME280;57495;49.922;7.966;2023-05-21T10:23:02;99610.03;;;26.42;57.68
70133;BME280;57495;49.922;7.966;2023-05-21T10:25:06;99612.38;;;26.33;58.14
70133;BME280;57495;49.922;7.966;2023-05-21T10:27:08;99602.50;;;25.88;57.52
70133;BME280;57495;49.922;7.966;2023-05-21T10:29:11;99596.22;;;26.10;57.47
70133;BME280;57495;49.922;7.966;2023-05-21T10:31:15;99596.00;;;26.38;57.49
70133;BME280;57495;49.922;7.966;2023-05-21T10:33:25;99588.91;;;26.15;57.29
70133;BME280;57495;49.922;7.966;2023-05-21T10:35:28;99591.41;;;26.22;58.21
70133;BME280;57495;49.922;7.966;2023-05-21T10:37:29;99594.38;;;25.76;60.11
70133;BME280;57495;49.922;7.966;2023-05-21T10:39:33;99592.00;;;26.51;60.98
70133;BME280;57495;49.922;7.966;2023-05-21T10:41:41;99590.41;;;27.47;58.09
70133;BME280;57495;49.922;7.966;2023-05-21T10:43:50;99584.28;;;28.56;58.71
70133;BME280;57495;49.922;7.966;2023-05-21T10:46:13;99584.81;;;28.68;51.45
70133;BME280;57495;49.922;7.966;2023-05-21T10:48:27;99585.31;;;29.63;52.08
70133;BME280;57495;49.922;7.966;2023-05-21T10:50:53;99578.91;;;30.53;47.79